sensor_id;sensor_type;location;lat;lon;timestamp;temperature;humidity
1359;DHT22;673;48.098;14.422;2023-02-18T00:01:18;12.10;99.90
1359;DHT22;673;48.098;14.422;2023-02-18T00:03:46;12.10;99.90
1359;DHT22;673;48.098;14.422;2023-02-18T00:06:17;12.10;99.90
1359;DHT22;673;48.098;14.422;2023-02-18T00:08:44;12.10;99.90
1359;DHT22;673;48.098;14.422;2023-02-18T00:11:12;12.10;99.90
1359;DHT22;673;48.098;14.422;2023-02-18T00:13:39;12.10;99.90
1359;DHT22;673;48.098;14.422;2023-02-18T00:16:08;12.00;99.90
1359;DHT22;673;48.098;14.422;2023-02-18T00:18:36;12.00;99.90
1359;DHT22;673;48.098;14.422;2023-02-18T00:21:04;12.00;99.90
1359;DHT22;673;48.098;14.422;2023-02-18T00:23:33;11.90;99.90
1359;DHT22;673;48.098;14.422;2023-02-18T00:26:02;11.90;99.90
1359;DHT22;673;48.098;14.422;2023-02-18T00:28:29;11.90;99.90
1359;DHT22;673;48.098;14.422;2023-02-18T00:30:56;11.90;99.90
1359;DHT22;673;48.098;14.422;2023-02-18T00:33:24;11.90;99.90
1359;DHT22;673;48.098;14.422;2023-02-18T00:35:51;11.90;99.90
1359;DHT22;673;48.098;14.422;2023-02-18T00:38:18;11.90;99.90
1359;DHT22;673;48.098;14.422;2023-02-18T00:40:46;11.90;99.90
1359;DHT22;673;48.098;14.422;2023-02-18T00:43:13;11.90;99.90
1359;DHT22;673;48.098;14.422;2023-02-18T00:45:40;11.90;99.90
1359;DHT22;673;48.098;14.422;2023-02-18T00:48:07;11.90;99.90
1359;DHT22;673;48.098;14.422;2023-02-18T00:50:34;11.90;99.90
1359;DHT22;673;48.098;14.422;2023-02-18T00:53:01;11.90;99.90
1359;DHT22;673;48.098;14.422;2023-02-18T00:55:29;12.00;99.90
1359;DHT22;673;48.098;14.422;2023-02-18T00:57:57;11.90;99.90
1359;DHT22;673;48.098;14.422;2023-02-18T01:00:24;11.90;99.90
1359;DHT22;673;48.098;14.422;2023-02-18T01:02:51;11.90;99.90
1359;DHT22;673;48.098;14.422;2023-02-18T01:05:19;12.00;99.90
1359;DHT22;673;48.098;14.422;2023-02-18T01:07:46;12.10;99.90
1359;DHT22;673;48.098;14.422;2023-02-18T01:10:13;12.00;99.90
1359;DHT22;673;48.098;14.422;2023-02-18T01:12:40;12.00;99.90
1359;DHT22;673;48.098;14.422;2023-02-18T01:15:10;12.10;99.90
1359;DHT22;673;48.098;14.422;2023-02-18T01:17:37;12.20;99.90
1359;DHT22;673;48.098;14.422;2023-02-18T01:20:05;12.10;99.90
1359;DHT22;673;48.098;14.422;2023-02-18T01:22:32;12.20;99.90
1359;DHT22;673;48.098;14.422;2023-02-18T01:24:59;12.10;99.90
1359;DHT22;673;48.098;14.422;2023-02-18T01:27:26;12.10;99.90
1359;DHT22;673;48.098;14.422;2023-02-18T01:29:53;12.10;99.90
1359;DHT22;673;48.098;14.422;2023-02-18T01:32:22;12.20;99.90
1359;DHT22;673;48.098;14.422;2023-02-18T01:34:49;12.20;99.90
1359;DHT22;673;48.098;14.422;2023-02-18T01:37:16;12.10;99.90
1359;DHT22;673;48.098;14.422;2023-02-18T01:39:43;12.10;99.90
1359;DHT22;673;48.098;14.422;2023-02-18T01:42:17;12.00;99.90
1359;DHT22;673;48.098;14.422;2023-02-18T01:44:45;12.00;99.90
1359;DHT22;673;48.098;14.422;2023-02-18T01:47:13;12.00;99.90
1359;DHT22;673;48.098;14.422;2023-02-18T01:49:42;12.00;99.90
1359;DHT22;673;48.098;14.422;2023-02-18T01:52:17;12.00;99.90
1359;DHT22;673;48.098;14.422;2023-02-18T01:54:47;12.00;99.90
1359;DHT22;673;48.098;14.422;2023-02-18T01:57:19;11.90;99.90
1359;DHT22;673;48.098;14.422;2023-02-18T01:59:49;11.90;99.90
1359;DHT22;673;48.098;14.422;2023-02-18T02:02:21;11.90;99.90
1359;DHT22;673;48.098;14.422;2023-02-18T02:04:51;11.90;99.90
1359;DHT22;673;48.098;14.422;2023-02-18T02:07:19;12.00;99.90
1359;DHT22;673;48.098;14.422;2023-02-18T02:09:50;11.90;99.90
1359;DHT22;673;48.098;14.422;2023-02-18T02:12:41;11.90;99.90
1359;DHT22;673;48.098;14.422;2023-02-18T02:15:33;11.80;99.90
1359;DHT22;673;48.098;14.422;2023-02-18T02:18:24;11.90;99.90
1359;DHT22;673;48.098;14.422;2023-02-18T02:27:11;11.80;99.90
1359;DHT22;673;48.098;14.422;2023-02-18T02:33:23;11.70;99.90
1359;DHT22;673;48.098;14.422;2023-02-18T02:35:57;11.60;99.90
1359;DHT22;673;48.098;14.422;2023-02-18T02:38:31;11.60;99.90
1359;DHT22;673;48.098;14.422;2023-02-18T02:41:09;11.60;99.90
1359;DHT22;673;48.098;14.422;2023-02-18T02:43:47;11.60;99.90
1359;DHT22;673;48.098;14.422;2023-02-18T02:46:22;11.60;99.90
1359;DHT22;673;48.098;14.422;2023-02-18T02:48:57;11.60;99.90
1359;DHT22;673;48.098;14.422;2023-02-18T02:51:33;11.50;99.90
1359;DHT22;673;48.098;14.422;2023-02-18T02:54:12;11.50;99.90
1359;DHT22;673;48.098;14.422;2023-02-18T02:56:39;11.50;99.90
1359;DHT22;673;48.098;14.422;2023-02-18T02:59:11;11.50;99.90
1359;DHT22;673;48.098;14.422;2023-02-18T03:01:52;11.40;99.90
1359;DHT22;673;48.098;14.422;2023-02-18T03:04:30;11.40;99.90
1359;DHT22;673;48.098;14.422;2023-02-18T03:07:10;11.40;99.90
1359;DHT22;673;48.098;14.422;2023-02-18T03:09:52;11.40;99.90
1359;DHT22;673;48.098;14.422;2023-02-18T03:12:27;11.40;99.90
1359;DHT22;673;48.098;14.422;2023-02-18T03:15:01;11.40;99.90
1359;DHT22;673;48.098;14.422;2023-02-18T03:17:34;11.40;99.90
1359;DHT22;673;48.098;14.422;2023-02-18T03:20:06;11.40;99.90
1359;DHT22;673;48.098;14.422;2023-02-18T03:22:38;11.50;99.90
1359;DHT22;673;48.098;14.422;2023-02-18T03:25:08;11.40;99.90
1359;DHT22;673;48.098;14.422;2023-02-18T03:27:40;11.40;99.90
1359;DHT22;673;48.098;14.422;2023-02-18T03:30:13;11.40;99.90
1359;DHT22;673;48.098;14.422;2023-02-18T03:32:42;11.40;99.90
1359;DHT22;673;48.098;14.422;2023-02-18T03:35:14;11.40;99.90
1359;DHT22;673;48.098;14.422;2023-02-18T03:37:44;11.30;99.90
1359;DHT22;673;48.098;14.422;2023-02-18T03:40:15;11.40;99.90
1359;DHT22;673;48.098;14.422;2023-02-18T03:42:43;11.30;99.90
1359;DHT22;673;48.098;14.422;2023-02-18T03:45:10;11.40;99.90
1359;DHT22;673;48.098;14.422;2023-02-18T03:47:37;11.30;99.90
1359;DHT22;673;48.098;14.422;2023-02-18T03:50:05;11.40;99.90
1359;DHT22;673;48.098;14.422;2023-02-18T03:52:32;11.40;99.90
1359;DHT22;673;48.098;14.422;2023-02-18T03:55:02;11.40;99.90
1359;DHT22;673;48.098;14.422;2023-02-18T03:57:29;11.40;99.90
1359;DHT22;673;48.098;14.422;2023-02-18T03:59:56;11.40;99.90
1359;DHT22;673;48.098;14.422;2023-02-18T04:02:23;11.40;99.90
1359;DHT22;673;48.098;14.422;2023-02-18T04:04:50;11.30;99.90
1359;DHT22;673;48.098;14.422;2023-02-18T04:07:17;11.30;99.90
1359;DHT22;673;48.098;14.422;2023-02-18T04:09:44;11.20;99.90
1359;DHT22;673;48.098;14.422;2023-02-18T04:12:13;11.20;99.90
1359;DHT22;673;48.098;14.422;2023-02-18T04:14:40;11.10;99.90
1359;DHT22;673;48.098;14.422;2023-02-18T04:17:07;11.00;99.90
1359;DHT22;673;48.098;14.422;2023-02-18T04:19:34;11.00;99.90
1359;DHT22;673;48.098;14.422;2023-02-18T04:22:02;10.90;99.90
1359;DHT22;673;48.098;14.422;2023-02-18T04:24:29;10.80;99.90
1359;DHT22;673;48.098;14.422;2023-02-18T04:26:56;10.80;99.90
1359;DHT22;673;48.098;14.422;2023-02-18T04:29:24;10.80;99.90
1359;DHT22;673;48.098;14.422;2023-02-18T04:31:51;10.70;99.90
1359;DHT22;673;48.098;14.422;2023-02-18T04:34:18;10.70;99.90
1359;DHT22;673;48.098;14.422;2023-02-18T04:36:45;10.80;99.90
1359;DHT22;673;48.098;14.422;2023-02-18T04:39:12;10.70;99.90
1359;DHT22;673;48.098;14.422;2023-02-18T04:41:39;10.80;99.90
1359;DHT22;673;48.098;14.422;2023-02-18T04:44:06;10.80;99.90
1359;DHT22;673;48.098;14.422;2023-02-18T04:46:34;10.80;99.90
1359;DHT22;673;48.098;14.422;2023-02-18T04:49:01;10.80;99.90
1359;DHT22;673;48.098;14.422;2023-02-18T04:51:28;10.80;99.90
1359;DHT22;673;48.098;14.422;2023-02-18T04:53:55;10.80;99.90
1359;DHT22;673;48.098;14.422;2023-02-18T04:56:22;10.80;99.90
1359;DHT22;673;48.098;14.422;2023-02-18T04:58:48;10.80;99.90
1359;DHT22;673;48.098;14.422;2023-02-18T05:01:15;10.80;99.90
1359;DHT22;673;48.098;14.422;2023-02-18T05:03:44;10.80;99.90
1359;DHT22;673;48.098;14.422;2023-02-18T05:06:12;10.80;99.90
1359;DHT22;673;48.098;14.422;2023-02-18T05:08:39;10.80;99.90
1359;DHT22;673;48.098;14.422;2023-02-18T05:11:06;10.80;99.90
1359;DHT22;673;48.098;14.422;2023-02-18T05:13:33;10.80;99.90
1359;DHT22;673;48.098;14.422;2023-02-18T05:16:00;10.70;99.90
1359;DHT22;673;48.098;14.422;2023-02-18T05:18:27;10.70;99.90
1359;DHT22;673;48.098;14.422;2023-02-18T05:20:56;10.70;99.90
1359;DHT22;673;48.098;14.422;2023-02-18T05:23:23;10.70;99.90
1359;DHT22;673;48.098;14.422;2023-02-18T05:25:51;10.70;99.90
1359;DHT22;673;48.098;14.422;2023-02-18T05:28:18;10.80;99.90
1359;DHT22;673;48.098;14.422;2023-02-18T05:30:45;10.80;99.90
1359;DHT22;673;48.098;14.422;2023-02-18T05:33:13;10.80;99.90
1359;DHT22;673;48.098;14.422;2023-02-18T05:35:40;11.00;99.90
1359;DHT22;673;48.098;14.422;2023-02-18T05:38:08;10.90;99.90
1359;DHT22;673;48.098;14.422;2023-02-18T05:40:36;11.00;99.90
1359;DHT22;673;48.098;14.422;2023-02-18T05:43:03;10.90;99.90
1359;DHT22;673;48.098;14.422;2023-02-18T05:45:30;10.80;99.90
1359;DHT22;673;48.098;14.422;2023-02-18T05:47:57;10.80;99.90
1359;DHT22;673;48.098;14.422;2023-02-18T05:50:24;10.90;99.90
1359;DHT22;673;48.098;14.422;2023-02-18T05:52:50;10.90;99.90
1359;DHT22;673;48.098;14.422;2023-02-18T05:55:19;10.90;99.90
1359;DHT22;673;48.098;14.422;2023-02-18T05:57:46;10.80;99.90
1359;DHT22;673;48.098;14.422;2023-02-18T06:00:14;10.80;99.90
1359;DHT22;673;48.098;14.422;2023-02-18T06:02:41;10.80;99.90
1359;DHT22;673;48.098;14.422;2023-02-18T06:05:08;10.80;99.90
1359;DHT22;673;48.098;14.422;2023-02-18T06:07:36;10.70;99.90
1359;DHT22;673;48.098;14.422;2023-02-18T06:10:03;10.70;99.90
1359;DHT22;673;48.098;14.422;2023-02-18T06:12:32;10.80;99.90
1359;DHT22;673;48.098;14.422;2023-02-18T06:14:59;10.80;99.90
1359;DHT22;673;48.098;14.422;2023-02-18T06:17:26;10.80;99.90
1359;DHT22;673;48.098;14.422;2023-02-18T06:19:53;10.80;99.90
1359;DHT22;673;48.098;14.422;2023-02-18T06:22:20;10.90;99.90
1359;DHT22;673;48.098;14.422;2023-02-18T06:24:47;10.90;99.90
1359;DHT22;673;48.098;14.422;2023-02-18T06:27:14;10.90;99.90
1359;DHT22;673;48.098;14.422;2023-02-18T06:29:43;10.90;99.90
1359;DHT22;673;48.098;14.422;2023-02-18T06:32:10;11.00;99.90
1359;DHT22;673;48.098;14.422;2023-02-18T06:34:37;11.00;99.90
1359;DHT22;673;48.098;14.422;2023-02-18T06:37:04;11.10;99.90
1359;DHT22;673;48.098;14.422;2023-02-18T06:39:30;11.10;99.90
1359;DHT22;673;48.098;14.422;2023-02-18T06:41:57;11.20;99.90
1359;DHT22;673;48.098;14.422;2023-02-18T06:44:25;11.30;99.90
1359;DHT22;673;48.098;14.422;2023-02-18T06:46:53;11.20;99.90
1359;DHT22;673;48.098;14.422;2023-02-18T06:49:20;11.30;99.90
1359;DHT22;673;48.098;14.422;2023-02-18T06:51:47;11.30;99.90
1359;DHT22;673;48.098;14.422;2023-02-18T06:54:14;11.30;99.90
1359;DHT22;673;48.098;14.422;2023-02-18T06:56:41;11.30;99.90
1359;DHT22;673;48.098;14.422;2023-02-18T06:59:08;11.20;99.90
1359;DHT22;673;48.098;14.422;2023-02-18T07:01:36;11.10;99.90
1359;DHT22;673;48.098;14.422;2023-02-18T07:04:04;11.10;99.90
1359;DHT22;673;48.098;14.422;2023-02-18T07:06:31;11.00;99.90
1359;DHT22;673;48.098;14.422;2023-02-18T07:08:58;11.00;99.90
1359;DHT22;673;48.098;14.422;2023-02-18T07:11:25;11.00;99.90
1359;DHT22;673;48.098;14.422;2023-02-18T07:13:52;10.90;99.90
1359;DHT22;673;48.098;14.422;2023-02-18T07:16:19;10.90;99.90
1359;DHT22;673;48.098;14.422;2023-02-18T07:18:46;10.90;99.90
1359;DHT22;673;48.098;14.422;2023-02-18T07:21:14;11.00;99.90
1359;DHT22;673;48.098;14.422;2023-02-18T07:23:41;11.00;99.90
1359;DHT22;673;48.098;14.422;2023-02-18T07:26:10;11.00;99.90
1359;DHT22;673;48.098;14.422;2023-02-18T07:28:38;10.90;99.90
1359;DHT22;673;48.098;14.422;2023-02-18T07:31:06;10.90;99.90
1359;DHT22;673;48.098;14.422;2023-02-18T07:33:33;10.90;99.90
1359;DHT22;673;48.098;14.422;2023-02-18T07:36:01;10.90;99.90
1359;DHT22;673;48.098;14.422;2023-02-18T07:38:29;10.90;99.90
1359;DHT22;673;48.098;14.422;2023-02-18T07:40:57;11.00;99.90
1359;DHT22;673;48.098;14.422;2023-02-18T07:43:26;11.10;99.90
1359;DHT22;673;48.098;14.422;2023-02-18T07:45:53;11.10;99.90
1359;DHT22;673;48.098;14.422;2023-02-18T07:48:20;11.20;99.90
1359;DHT22;673;48.098;14.422;2023-02-18T07:50:47;11.20;99.90
1359;DHT22;673;48.098;14.422;2023-02-18T07:53:15;11.20;99.90
1359;DHT22;673;48.098;14.422;2023-02-18T07:55:44;11.20;99.90
1359;DHT22;673;48.098;14.422;2023-02-18T07:58:17;11.20;99.90
1359;DHT22;673;48.098;14.422;2023-02-18T08:00:45;11.20;99.90
1359;DHT22;673;48.098;14.422;2023-02-18T08:03:14;11.20;99.90
1359;DHT22;673;48.098;14.422;2023-02-18T08:05:41;11.20;99.90
1359;DHT22;673;48.098;14.422;2023-02-18T08:08:12;11.20;99.90
1359;DHT22;673;48.098;14.422;2023-02-18T08:10:39;11.20;99.90
1359;DHT22;673;48.098;14.422;2023-02-18T08:13:08;11.30;99.90
1359;DHT22;673;48.098;14.422;2023-02-18T08:15:35;11.30;99.90
1359;DHT22;673;48.098;14.422;2023-02-18T08:18:03;11.30;99.90
1359;DHT22;673;48.098;14.422;2023-02-18T08:20:30;11.40;99.90
1359;DHT22;673;48.098;14.422;2023-02-18T08:22:57;11.40;99.90
1359;DHT22;673;48.098;14.422;2023-02-18T08:25:23;11.40;99.90
1359;DHT22;673;48.098;14.422;2023-02-18T08:27:50;11.40;99.90
1359;DHT22;673;48.098;14.422;2023-02-18T08:30:19;11.50;99.90
1359;DHT22;673;48.098;14.422;2023-02-18T08:32:46;11.60;99.90
1359;DHT22;673;48.098;14.422;2023-02-18T08:35:13;11.50;99.90
1359;DHT22;673;48.098;14.422;2023-02-18T08:37:40;11.70;99.90
1359;DHT22;673;48.098;14.422;2023-02-18T08:40:09;11.80;99.90
1359;DHT22;673;48.098;14.422;2023-02-18T08:42:36;11.80;99.90
1359;DHT22;673;48.098;14.422;2023-02-18T08:45:03;11.80;99.90
1359;DHT22;673;48.098;14.422;2023-02-18T08:47:32;11.80;99.90
1359;DHT22;673;48.098;14.422;2023-02-18T08:49:59;11.80;99.90
1359;DHT22;673;48.098;14.422;2023-02-18T08:52:27;11.80;99.90
1359;DHT22;673;48.098;14.422;2023-02-18T08:54:54;11.70;99.90
1359;DHT22;673;48.098;14.422;2023-02-18T08:57:21;11.70;99.90
1359;DHT22;673;48.098;14.422;2023-02-18T08:59:48;11.70;99.90
1359;DHT22;673;48.098;14.422;2023-02-18T09:02:15;11.70;99.90
1359;DHT22;673;48.098;14.422;2023-02-18T09:04:43;11.80;99.90
1359;DHT22;673;48.098;14.422;2023-02-18T09:07:10;11.70;99.90
1359;DHT22;673;48.098;14.422;2023-02-18T09:09:37;11.80;99.90
1359;DHT22;673;48.098;14.422;2023-02-18T09:12:05;11.70;99.90
1359;DHT22;673;48.098;14.422;2023-02-18T09:14:32;11.80;99.90
1359;DHT22;673;48.098;14.422;2023-02-18T09:16:59;11.80;99.90
1359;DHT22;673;48.098;14.422;2023-02-18T09:19:26;11.80;99.90
1359;DHT22;673;48.098;14.422;2023-02-18T09:21:54;11.80;99.90
1359;DHT22;673;48.098;14.422;2023-02-18T09:24:22;11.90;99.90
1359;DHT22;673;48.098;14.422;2023-02-18T09:26:50;11.90;99.90
1359;DHT22;673;48.098;14.422;2023-02-18T09:29:17;12.00;99.90
1359;DHT22;673;48.098;14.422;2023-02-18T09:31:44;12.10;99.90
1359;DHT22;673;48.098;14.422;2023-02-18T09:34:11;12.30;99.90
1359;DHT22;673;48.098;14.422;2023-02-18T09:36:38;12.40;99.90
1359;DHT22;673;48.098;14.422;2023-02-18T09:39:07;12.60;99.90
1359;DHT22;673;48.098;14.422;2023-02-18T09:41:38;12.70;99.90
1359;DHT22;673;48.098;14.422;2023-02-18T09:44:10;12.50;99.90
1359;DHT22;673;48.098;14.422;2023-02-18T09:46:41;12.60;99.90
1359;DHT22;673;48.098;14.422;2023-02-18T09:49:14;12.60;99.90
1359;DHT22;673;48.098;14.422;2023-02-18T09:51:42;12.60;99.90
1359;DHT22;673;48.098;14.422;2023-02-18T09:54:11;12.70;99.90
1359;DHT22;673;48.098;14.422;2023-02-18T09:56:40;12.70;99.90
1359;DHT22;673;48.098;14.422;2023-02-18T09:59:12;12.80;99.90
1359;DHT22;673;48.098;14.422;2023-02-18T10:01:41;12.90;99.90
1359;DHT22;673;48.098;14.422;2023-02-18T10:04:13;13.00;99.90
1359;DHT22;673;48.098;14.422;2023-02-18T10:06:44;13.20;99.90
1359;DHT22;673;48.098;14.422;2023-02-18T10:09:18;13.40;99.90
1359;DHT22;673;48.098;14.422;2023-02-18T10:11:49;13.30;99.90
1359;DHT22;673;48.098;14.422;2023-02-18T10:14:18;13.30;99.90
1359;DHT22;673;48.098;14.422;2023-02-18T10:16:46;13.20;99.90
1359;DHT22;673;48.098;14.422;2023-02-18T10:19:21;13.10;99.90
1359;DHT22;673;48.098;14.422;2023-02-18T10:21:51;13.20;99.90
1359;DHT22;673;48.098;14.422;2023-02-18T10:24:27;13.50;99.90
1359;DHT22;673;48.098;14.422;2023-02-18T10:26:54;13.70;99.90
1359;DHT22;673;48.098;14.422;2023-02-18T10:29:22;13.90;99.90
1359;DHT22;673;48.098;14.422;2023-02-18T10:31:54;13.90;99.90
1359;DHT22;673;48.098;14.422;2023-02-18T10:34:30;13.90;99.90
1359;DHT22;673;48.098;14.422;2023-02-18T10:37:08;14.30;99.90
1359;DHT22;673;48.098;14.422;2023-02-18T10:39:52;14.30;99.90
1359;DHT22;673;48.098;14.422;2023-02-18T10:42:29;14.40;99.90
1359;DHT22;673;48.098;14.422;2023-02-18T10:45:07;14.20;99.90
1359;DHT22;673;48.098;14.422;2023-02-18T10:47:38;14.20;99.90
1359;DHT22;673;48.098;14.422;2023-02-18T10:50:12;14.40;99.90
1359;DHT22;673;48.098;14.422;2023-02-18T10:52:42;14.40;99.90
1359;DHT22;673;48.098;14.422;2023-02-18T10:55:13;14.60;99.90
1359;DHT22;673;48.098;14.422;2023-02-18T10:57:48;14.50;99.90
1359;DHT22;673;48.098;14.422;2023-02-18T11:00:18;14.90;99.90
1359;DHT22;673;48.098;14.422;2023-02-18T11:03:03;14.90;99.90
1359;DHT22;673;48.098;14.422;2023-02-18T11:05:37;15.00;99.90
1359;DHT22;673;48.098;14.422;2023-02-18T11:08:07;14.80;99.90
1359;DHT22;673;48.098;14.422;2023-02-18T11:10:38;14.70;99.90
1359;DHT22;673;48.098;14.422;2023-02-18T11:13:09;14.80;99.90
1359;DHT22;673;48.098;14.422;2023-02-18T11:15:36;14.90;99.90
1359;DHT22;673;48.098;14.422;2023-02-18T11:18:12;14.90;99.90
1359;DHT22;673;48.098;14.422;2023-02-18T11:20:40;15.00;99.90
1359;DHT22;673;48.098;14.422;2023-02-18T11:23:19;14.90;99.90
1359;DHT22;673;48.098;14.422;2023-02-18T11:25:58;14.60;99.90
1359;DHT22;673;48.098;14.422;2023-02-18T11:28:41;14.70;99.90
1359;DHT22;673;48.098;14.422;2023-02-18T11:31:19;14.40;99.90
1359;DHT22;673;48.098;14.422;2023-02-18T11:33:50;14.30;99.90
1359;DHT22;673;48.098;14.422;2023-02-18T11:36:21;14.20;99.90
1359;DHT22;673;48.098;14.422;2023-02-18T11:38:52;14.10;99.90
1359;DHT22;673;48.098;14.422;2023-02-18T11:41:27;14.00;99.90
1359;DHT22;673;48.098;14.422;2023-02-18T11:43:56;14.00;99.90
1359;DHT22;673;48.098;14.422;2023-02-18T11:46:25;14.00;99.90
1359;DHT22;673;48.098;14.422;2023-02-18T11:48:53;14.00;99.90
1359;DHT22;673;48.098;14.422;2023-02-18T11:51:24;14.00;99.90
1359;DHT22;673;48.098;14.422;2023-02-18T11:54:02;14.10;99.90
1359;DHT22;673;48.098;14.422;2023-02-18T11:56:32;14.00;99.90
1359;DHT22;673;48.098;14.422;2023-02-18T11:59:01;13.90;99.90
1359;DHT22;673;48.098;14.422;2023-02-18T12:01:37;14.00;99.90
1359;DHT22;673;48.098;14.422;2023-02-18T12:04:11;14.00;99.90
1359;DHT22;673;48.098;14.422;2023-02-18T12:06:44;14.00;99.90
1359;DHT22;673;48.098;14.422;2023-02-18T12:09:19;14.10;99.90
1359;DHT22;673;48.098;14.422;2023-02-18T12:11:52;14.00;99.90
1359;DHT22;673;48.098;14.422;2023-02-18T12:14:22;14.00;99.90
1359;DHT22;673;48.098;14.422;2023-02-18T12:19:56;14.00;99.90
1359;DHT22;673;48.098;14.422;2023-02-18T12:22:32;14.00;99.90
1359;DHT22;673;48.098;14.422;2023-02-18T12:25:19;14.10;99.90
1359;DHT22;673;48.098;14.422;2023-02-18T12:27:55;14.10;99.90
1359;DHT22;673;48.098;14.422;2023-02-18T12:30:39;14.10;99.90
1359;DHT22;673;48.098;14.422;2023-02-18T12:33:17;14.20;99.90
1359;DHT22;673;48.098;14.422;2023-02-18T12:35:56;14.30;99.90
1359;DHT22;673;48.098;14.422;2023-02-18T12:38:59;14.30;99.90
1359;DHT22;673;48.098;14.422;2023-02-18T12:41:58;14.40;99.90
1359;DHT22;673;48.098;14.422;2023-02-18T12:44:37;14.50;99.90
1359;DHT22;673;48.098;14.422;2023-02-18T12:47:35;14.60;99.90
1359;DHT22;673;48.098;14.422;2023-02-18T12:50:33;14.80;99.90
1359;DHT22;673;48.098;14.422;2023-02-18T12:53:23;14.70;99.90
1359;DHT22;673;48.098;14.422;2023-02-18T12:56:13;14.60;99.90
1359;DHT22;673;48.098;14.422;2023-02-18T12:58:51;14.50;99.90
1359;DHT22;673;48.098;14.422;2023-02-18T13:01:34;14.50;99.90
1359;DHT22;673;48.098;14.422;2023-02-18T13:04:23;14.50;99.90
1359;DHT22;673;48.098;14.422;2023-02-18T13:10:06;14.40;99.90
1359;DHT22;673;48.098;14.422;2023-02-18T13:12:40;14.30;99.90
1359;DHT22;673;48.098;14.422;2023-02-18T13:15:16;14.20;99.90
1359;DHT22;673;48.098;14.422;2023-02-18T13:17:46;14.30;99.90
1359;DHT22;673;48.098;14.422;2023-02-18T13:20:19;14.40;99.90
1359;DHT22;673;48.098;14.422;2023-02-18T13:22:47;14.50;99.90
1359;DHT22;673;48.098;14.422;2023-02-18T13:25:16;14.50;99.90
1359;DHT22;673;48.098;14.422;2023-02-18T13:27:49;14.70;99.90
1359;DHT22;673;48.098;14.422;2023-02-18T13:30:21;14.90;99.90
1359;DHT22;673;48.098;14.422;2023-02-18T13:32:59;15.00;99.90
1359;DHT22;673;48.098;14.422;2023-02-18T13:35:31;15.00;99.90
1359;DHT22;673;48.098;14.422;2023-02-18T13:38:21;15.20;99.90
1359;DHT22;673;48.098;14.422;2023-02-18T13:40:52;15.20;99.90
1359;DHT22;673;48.098;14.422;2023-02-18T13:43:29;15.20;99.90
1359;DHT22;673;48.098;14.422;2023-02-18T13:46:07;15.20;99.90
1359;DHT22;673;48.098;14.422;2023-02-18T13:48:42;15.30;99.90
1359;DHT22;673;48.098;14.422;2023-02-18T13:51:12;15.30;99.90
1359;DHT22;673;48.098;14.422;2023-02-18T13:53:42;15.30;99.90
1359;DHT22;673;48.098;14.422;2023-02-18T13:56:20;15.30;99.90
1359;DHT22;673;48.098;14.422;2023-02-18T13:58:49;15.30;99.90
1359;DHT22;673;48.098;14.422;2023-02-18T14:01:24;15.30;99.90
1359;DHT22;673;48.098;14.422;2023-02-18T14:04:00;15.20;99.90
1359;DHT22;673;48.098;14.422;2023-02-18T14:06:30;15.20;99.90
1359;DHT22;673;48.098;14.422;2023-02-18T14:09:35;15.20;99.90
1359;DHT22;673;48.098;14.422;2023-02-18T14:12:23;15.20;99.90
1359;DHT22;673;48.098;14.422;2023-02-18T14:14:51;15.10;99.90
1359;DHT22;673;48.098;14.422;2023-02-18T14:17:42;15.00;99.90
1359;DHT22;673;48.098;14.422;2023-02-18T14:20:30;15.00;99.90
1359;DHT22;673;48.098;14.422;2023-02-18T14:22:59;15.00;99.90
1359;DHT22;673;48.098;14.422;2023-02-18T14:25:35;15.00;99.90
1359;DHT22;673;48.098;14.422;2023-02-18T14:28:36;14.90;99.90
1359;DHT22;673;48.098;14.422;2023-02-18T14:31:16;14.90;99.90
1359;DHT22;673;48.098;14.422;2023-02-18T14:33:54;15.00;99.90
1359;DHT22;673;48.098;14.422;2023-02-18T14:36:33;15.00;99.90
1359;DHT22;673;48.098;14.422;2023-02-18T14:39:05;14.90;99.90
1359;DHT22;673;48.098;14.422;2023-02-18T14:41:42;15.00;99.90
1359;DHT22;673;48.098;14.422;2023-02-18T14:44:39;15.00;99.90
1359;DHT22;673;48.098;14.422;2023-02-18T14:47:21;15.00;99.90
1359;DHT22;673;48.098;14.422;2023-02-18T14:49:52;15.20;99.90
1359;DHT22;673;48.098;14.422;2023-02-18T14:52:29;15.10;99.90
1359;DHT22;673;48.098;14.422;2023-02-18T14:55:00;15.10;99.90
1359;DHT22;673;48.098;14.422;2023-02-18T14:57:33;15.00;99.90
1359;DHT22;673;48.098;14.422;2023-02-18T15:00:03;14.90;99.90
1359;DHT22;673;48.098;14.422;2023-02-18T15:02:35;14.80;99.90
1359;DHT22;673;48.098;14.422;2023-02-18T15:05:14;14.70;99.90
1359;DHT22;673;48.098;14.422;2023-02-18T15:07:54;14.70;99.90
1359;DHT22;673;48.098;14.422;2023-02-18T15:10:21;14.60;99.90
1359;DHT22;673;48.098;14.422;2023-02-18T15:12:48;14.50;99.90
1359;DHT22;673;48.098;14.422;2023-02-18T15:15:15;14.40;99.90
1359;DHT22;673;48.098;14.422;2023-02-18T15:17:45;14.40;99.90
1359;DHT22;673;48.098;14.422;2023-02-18T15:20:13;14.30;99.90
1359;DHT22;673;48.098;14.422;2023-02-18T15:22:42;14.20;99.90
1359;DHT22;673;48.098;14.422;2023-02-18T15:25:11;14.10;99.90
1359;DHT22;673;48.098;14.422;2023-02-18T15:27:41;14.10;99.90
1359;DHT22;673;48.098;14.422;2023-02-18T15:30:18;14.00;99.90
1359;DHT22;673;48.098;14.422;2023-02-18T15:32:50;14.00;99.90
1359;DHT22;673;48.098;14.422;2023-02-18T15:35:19;14.00;99.90
1359;DHT22;673;48.098;14.422;2023-02-18T15:37:53;13.90;99.90
1359;DHT22;673;48.098;14.422;2023-02-18T15:40:21;13.80;99.90
1359;DHT22;673;48.098;14.422;2023-02-18T15:42:51;13.80;99.90
1359;DHT22;673;48.098;14.422;2023-02-18T15:45:20;13.80;99.90
1359;DHT22;673;48.098;14.422;2023-02-18T15:47:50;13.70;99.90
1359;DHT22;673;48.098;14.422;2023-02-18T15:50:19;13.80;99.90
1359;DHT22;673;48.098;14.422;2023-02-18T15:52:49;13.70;99.90
1359;DHT22;673;48.098;14.422;2023-02-18T15:55:23;13.60;99.90
1359;DHT22;673;48.098;14.422;2023-02-18T15:57:54;13.60;99.90
1359;DHT22;673;48.098;14.422;2023-02-18T16:00:26;13.60;99.90
1359;DHT22;673;48.098;14.422;2023-02-18T16:02:56;13.60;99.90
1359;DHT22;673;48.098;14.422;2023-02-18T16:05:28;13.60;99.90
1359;DHT22;673;48.098;14.422;2023-02-18T16:08:00;13.50;99.90
1359;DHT22;673;48.098;14.422;2023-02-18T16:10:46;13.50;99.90
1359;DHT22;673;48.098;14.422;2023-02-18T16:13:16;13.40;99.90
1359;DHT22;673;48.098;14.422;2023-02-18T16:15:46;13.40;99.90
1359;DHT22;673;48.098;14.422;2023-02-18T16:18:29;13.30;99.90
1359;DHT22;673;48.098;14.422;2023-02-18T16:20:59;13.10;99.90
1359;DHT22;673;48.098;14.422;2023-02-18T16:23:36;13.00;99.90
1359;DHT22;673;48.098;14.422;2023-02-18T16:26:18;12.80;99.90
1359;DHT22;673;48.098;14.422;2023-02-18T16:28:48;12.70;99.90
1359;DHT22;673;48.098;14.422;2023-02-18T16:31:15;12.50;99.90
1359;DHT22;673;48.098;14.422;2023-02-18T16:33:42;12.50;99.90
1359;DHT22;673;48.098;14.422;2023-02-18T16:36:12;12.60;99.90
1359;DHT22;673;48.098;14.422;2023-02-18T16:38:42;12.60;99.90
1359;DHT22;673;48.098;14.422;2023-02-18T16:41:10;12.50;99.90
1359;DHT22;673;48.098;14.422;2023-02-18T16:43:39;12.40;99.90